Time;durP1;ratioP1;P1;durP2;ratioP2;P2;SDS_P1;SDS_P2;PMS_P1;PMS_P2;Temp;Humidity;BMP_temperature;BMP_pressure;BME280_temperature;BME280_humidity;BME280_pressure;Samples;Min_cycle;Max_cycle;Signal;HPM_P1;HPM_P2
2021/07/02 00:00:58;;;;;;;2.47;1.60;;;15.90;99.90;;;;;;4953430;28;20658;-79
2021/07/02 00:03:23;;;;;;;4.00;1.37;;;15.90;99.90;;;;;;4947823;28;20278;-79
2021/07/02 00:05:49;;;;;;;0.70;0.60;;;15.90;99.90;;;;;;4946886;29;20186;-80
2021/07/02 00:08:14;;;;;;;1.30;0.93;;;15.90;99.90;;;;;;4957288;28;20639;-80
2021/07/02 00:10:40;;;;;;;2.20;1.10;;;16.00;99.90;;;;;;4955200;28;20189;-80
2021/07/02 00:13:05;;;;;;;4.70;1.70;;;16.00;99.90;;;;;;4951868;28;20175;-80
2021/07/02 00:15:31;;;;;;;2.10;1.93;;;16.00;99.90;;;;;;4949159;28;20478;-80
2021/07/02 00:17:56;;;;;;;1.47;1.17;;;16.00;99.90;;;;;;4954036;28;20669;-81
2021/07/02 00:20:22;;;;;;;1.20;0.73;;;15.90;99.90;;;;;;4950159;29;20213;-80
2021/07/02 00:22:47;;;;;;;0.73;0.70;;;15.90;99.90;;;;;;4950846;28;20248;-81
2021/07/02 00:25:13;;;;;;;0.80;0.63;;;15.80;99.90;;;;;;4951161;28;20178;-81
2021/07/02 00:27:39;;;;;;;0.80;0.80;;;15.80;99.90;;;;;;4952201;29;20221;-80
2021/07/02 00:30:06;;;;;;;1.77;1.30;;;15.80;99.90;;;;;;4953347;28;20199;-80
2021/07/02 00:32:31;;;;;;;3.10;2.13;;;15.80;99.90;;;;;;4954919;29;20185;-81
2021/07/02 00:34:57;;;;;;;5.23;4.83;;;15.80;99.90;;;;;;4953974;29;20998;-80
2021/07/02 00:37:22;;;;;;;0.90;0.80;;;15.80;99.90;;;;;;4956028;28;20182;-80
2021/07/02 00:39:48;;;;;;;0.90;0.80;;;15.80;99.90;;;;;;4947189;28;20202;-80
2021/07/02 00:42:13;;;;;;;1.80;0.93;;;15.80;99.90;;;;;;4946230;28;20202;-80
2021/07/02 00:44:45;;;;;;;1.10;1.00;;;15.80;99.90;;;;;;4948809;28;20607;-80
2021/07/02 00:47:12;;;;;;;1.27;1.00;;;15.80;99.90;;;;;;4952361;29;20642;-80
2021/07/02 00:49:38;;;;;;;0.80;0.60;;;15.80;99.90;;;;;;4948805;28;20453;-81
2021/07/02 00:52:05;;;;;;;0.80;0.80;;;15.80;99.90;;;;;;4951854;28;20434;-80
2021/07/02 00:54:32;;;;;;;3.80;1.70;;;15.70;99.90;;;;;;4953604;28;20935;-80
2021/07/02 00:56:58;;;;;;;1.73;1.17;;;15.70;99.90;;;;;;4952223;28;20939;-79
2021/07/02 00:59:23;;;;;;;1.07;0.90;;;15.70;99.90;;;;;;4942762;29;20469;-80
2021/07/02 01:01:49;;;;;;;2.50;0.90;;;15.70;99.90;;;;;;4952815;28;20174;-80
2021/07/02 01:04:14;;;;;;;3.33;1.40;;;15.80;99.90;;;;;;4950902;29;20175;-81
2021/07/02 01:06:40;;;;;;;2.70;2.50;;;15.80;99.90;;;;;;4953650;28;20174;-81
2021/07/02 01:09:08;;;;;;;1.83;1.73;;;15.80;99.90;;;;;;4954959;29;20273;-80
2021/07/02 01:11:34;;;;;;;3.17;1.00;;;15.70;99.90;;;;;;4951615;28;20166;-80
2021/07/02 01:13:59;;;;;;;1.03;0.93;;;15.70;99.90;;;;;;4955695;28;20497;-80
2021/07/02 01:16:25;;;;;;;1.37;1.27;;;15.70;99.90;;;;;;4953175;28;20266;-81
2021/07/02 01:18:50;;;;;;;1.13;1.03;;;15.70;99.90;;;;;;4953943;28;20207;-80
2021/07/02 01:21:16;;;;;;;0.70;0.70;;;15.70;99.90;;;;;;4954577;28;20211;-79
2021/07/02 01:23:41;;;;;;;1.40;1.30;;;15.70;99.90;;;;;;4950071;28;20174;-79
2021/07/02 01:26:08;;;;;;;1.53;1.00;;;15.70;99.90;;;;;;4953675;28;20193;-81
2021/07/02 01:28:34;;;;;;;1.07;0.80;;;15.60;99.90;;;;;;4956903;29;20174;-81
2021/07/02 01:30:59;;;;;;;2.90;2.80;;;15.60;99.90;;;;;;4943549;29;20832;-80
2021/07/02 01:33:25;;;;;;;2.63;2.07;;;15.60;99.90;;;;;;4956626;29;20221;-81
2021/07/02 01:35:50;;;;;;;2.57;2.33;;;15.60;99.90;;;;;;4952864;29;20258;-79
2021/07/02 01:38:16;;;;;;;1.10;1.00;;;15.60;99.90;;;;;;4953405;28;20656;-80
2021/07/02 01:40:42;;;;;;;1.47;0.80;;;15.50;99.90;;;;;;4953119;28;20174;-81
2021/07/02 01:43:08;;;;;;;0.80;0.80;;;15.50;99.90;;;;;;4954253;28;20659;-80
2021/07/02 01:45:33;;;;;;;0.70;0.60;;;15.40;99.90;;;;;;4946621;28;20438;-81
2021/07/02 01:47:59;;;;;;;1.33;0.70;;;15.40;99.90;;;;;;4950564;28;20182;-80
2021/07/02 01:50:26;;;;;;;4.10;2.30;;;15.30;99.90;;;;;;4950643;28;20198;-79
2021/07/02 01:52:52;;;;;;;2.90;2.80;;;15.30;99.90;;;;;;4948766;28;20551;-81
2021/07/02 01:55:18;;;;;;;3.03;1.30;;;15.30;99.90;;;;;;4936375;29;20426;-80
2021/07/02 01:57:45;;;;;;;0.80;0.70;;;15.30;99.90;;;;;;4955651;28;20430;-80
2021/07/02 02:00:11;;;;;;;5.77;1.73;;;15.20;99.90;;;;;;4955025;28;20982;-80
2021/07/02 02:02:36;;;;;;;2.00;1.30;;;15.20;99.90;;;;;;4954854;29;20425;-80
2021/07/02 02:05:03;;;;;;;2.20;1.53;;;15.20;99.90;;;;;;4950866;29;20419;-81
2021/07/02 02:07:28;;;;;;;1.13;1.07;;;15.20;99.90;;;;;;4951448;29;20178;-80
2021/07/02 02:09:54;;;;;;;3.87;1.33;;;15.10;99.90;;;;;;4953690;29;20445;-80
2021/07/02 02:12:20;;;;;;;0.80;0.70;;;15.10;99.90;;;;;;4955326;28;20710;-80
2021/07/02 02:14:46;;;;;;;3.90;3.70;;;15.00;99.90;;;;;;4936160;28;20179;-78
2021/07/02 02:17:12;;;;;;;0.87;0.60;;;15.00;99.90;;;;;;4952182;29;20460;-79
2021/07/02 02:19:37;;;;;;;4.60;0.90;;;15.00;99.90;;;;;;4953945;28;20267;-79
2021/07/02 02:22:03;;;;;;;1.17;1.07;;;14.90;99.90;;;;;;4953580;29;20178;-81
2021/07/02 02:24:29;;;;;;;1.37;1.07;;;14.90;99.90;;;;;;4946425;29;20539;-79
2021/07/02 02:26:55;;;;;;;1.50;0.77;;;14.90;99.90;;;;;;4936450;29;20411;-82
2021/07/02 02:29:22;;;;;;;0.80;0.70;;;14.90;99.90;;;;;;4953087;29;20450;-78
2021/07/02 02:31:48;;;;;;;0.80;0.80;;;14.80;99.90;;;;;;4953052;28;20190;-79
2021/07/02 02:34:14;;;;;;;1.90;1.80;;;14.80;99.90;;;;;;4956594;28;20457;-80
2021/07/02 02:36:39;;;;;;;0.80;0.70;;;14.80;99.90;;;;;;4951834;28;20179;-80
2021/07/02 02:39:06;;;;;;;2.27;2.07;;;14.70;99.90;;;;;;4954125;29;20281;-78
2021/07/02 02:41:33;;;;;;;0.70;0.60;;;14.80;99.90;;;;;;4946851;29;20179;-79
2021/07/02 02:43:58;;;;;;;1.77;1.67;;;14.70;99.90;;;;;;4956461;28;20426;-79
2021/07/02 02:46:24;;;;;;;0.80;0.70;;;14.70;99.90;;;;;;4953687;29;20418;-79
2021/07/02 02:48:50;;;;;;;1.37;1.27;;;14.60;99.90;;;;;;4954692;28;20229;-80
2021/07/02 02:51:16;;;;;;;3.53;1.20;;;14.60;99.90;;;;;;4956705;28;20174;-81
2021/07/02 02:53:42;;;;;;;0.80;0.70;;;14.60;99.90;;;;;;4945544;29;20569;-79
2021/07/02 02:56:07;;;;;;;2.53;2.00;;;14.60;99.90;;;;;;4950184;29;20200;-79
2021/07/02 02:58:33;;;;;;;0.90;0.80;;;14.60;99.90;;;;;;4956397;29;20418;-79
2021/07/02 03:00:58;;;;;;;5.50;1.80;;;14.60;99.90;;;;;;4954906;29;20245;-80
2021/07/02 03:03:24;;;;;;;1.37;1.27;;;14.60;99.90;;;;;;4954583;29;20186;-81
2021/07/02 03:05:50;;;;;;;0.80;0.80;;;14.60;99.90;;;;;;4955671;28;20170;-78
2021/07/02 03:08:16;;;;;;;0.83;0.83;;;14.60;99.90;;;;;;4955729;29;20201;-79
2021/07/02 03:10:42;;;;;;;1.00;0.90;;;14.50;99.90;;;;;;4947142;28;20547;-79
2021/07/02 03:13:08;;;;;;;2.70;1.63;;;14.60;99.90;;;;;;4949381;29;20448;-79
2021/07/02 03:15:33;;;;;;;2.20;1.13;;;14.50;99.90;;;;;;4954703;29;20174;-81
2021/07/02 03:17:59;;;;;;;5.43;4.37;;;14.50;99.90;;;;;;4957698;28;20441;-79
2021/07/02 03:20:25;;;;;;;1.10;0.80;;;14.50;99.90;;;;;;4955205;29;20253;-82
2021/07/02 03:22:51;;;;;;;0.83;0.73;;;14.50;99.90;;;;;;4950738;29;20182;-82
2021/07/02 03:25:16;;;;;;;3.73;1.57;;;14.50;99.90;;;;;;4950244;28;20197;-79
2021/07/02 03:27:42;;;;;;;1.37;1.27;;;14.50;99.90;;;;;;4954056;28;20418;-79
2021/07/02 03:30:10;;;;;;;1.00;0.70;;;14.40;99.90;;;;;;4954095;28;20206;-81
2021/07/02 03:32:36;;;;;;;2.30;2.03;;;14.50;99.90;;;;;;4953127;29;20179;-79
2021/07/02 03:35:02;;;;;;;1.00;0.60;;;14.40;99.90;;;;;;4952902;29;20441;-79
2021/07/02 03:37:27;;;;;;;7.57;1.33;;;14.40;99.90;;;;;;4955250;28;20604;-79
2021/07/02 03:39:53;;;;;;;2.63;2.53;;;14.30;99.90;;;;;;4956716;28;20767;-82
2021/07/02 03:42:19;;;;;;;1.47;1.37;;;14.30;99.90;;;;;;4959525;28;20199;-82
2021/07/02 03:44:44;;;;;;;1.60;1.00;;;14.30;99.90;;;;;;4970210;28;20178;-82
2021/07/02 03:47:10;;;;;;;0.80;0.70;;;14.20;99.90;;;;;;4962085;28;20201;-79
2021/07/02 03:49:36;;;;;;;3.23;3.03;;;14.20;99.90;;;;;;4965044;28;20202;-79
2021/07/02 03:52:02;;;;;;;0.70;0.60;;;14.20;99.90;;;;;;4959593;28;20518;-83
2021/07/02 03:54:27;;;;;;;4.77;1.10;;;14.30;99.90;;;;;;4957595;29;20182;-81
2021/07/02 03:57:11;;;;;;;1.53;1.30;;;14.20;99.90;;;;;;4939657;29;20431;-79
2021/07/02 03:59:48;;;;;;;1.53;1.43;;;14.10;99.90;;;;;;4954707;29;20264;-80
2021/07/02 04:02:14;;;;;;;1.80;1.70;;;14.10;99.90;;;;;;4956823;28;20966;-80
2021/07/02 04:04:40;;;;;;;2.80;1.33;;;14.20;99.90;;;;;;4957104;28;20409;-80
2021/07/02 04:07:09;;;;;;;3.03;1.00;;;14.20;99.90;;;;;;4946175;29;20512;-79
2021/07/02 04:09:34;;;;;;;1.27;1.17;;;14.10;99.90;;;;;;4954151;29;20492;-79
2021/07/02 04:12:00;;;;;;;1.83;1.73;;;14.10;99.90;;;;;;4968128;28;20823;-79
2021/07/02 04:14:27;;;;;;;1.83;1.57;;;14.10;99.90;;;;;;4944369;29;20179;-79
2021/07/02 04:16:53;;;;;;;0.80;0.73;;;14.10;99.90;;;;;;4956578;28;20422;-78
2021/07/02 04:19:18;;;;;;;5.63;1.60;;;14.10;99.90;;;;;;4957988;28;20966;-79
2021/07/02 04:21:45;;;;;;;1.23;0.70;;;14.10;99.90;;;;;;4956375;28;20230;-78
2021/07/02 04:24:10;;;;;;;1.77;1.67;;;14.10;99.90;;;;;;4953605;28;20174;-79
2021/07/02 04:26:36;;;;;;;1.50;1.40;;;14.10;99.90;;;;;;4955128;29;20973;-78
2021/07/02 04:29:02;;;;;;;0.83;0.83;;;14.10;99.90;;;;;;4956641;28;20221;-77
2021/07/02 04:31:28;;;;;;;0.73;0.57;;;14.10;99.90;;;;;;4966183;28;20423;-78
2021/07/02 04:33:56;;;;;;;0.80;0.60;;;14.00;99.90;;;;;;4972858;28;20437;-78
2021/07/02 04:36:22;;;;;;;14.40;2.87;;;14.10;99.90;;;;;;4960744;28;20182;-78
2021/07/02 04:38:47;;;;;;;0.93;0.90;;;14.10;99.90;;;;;;4948958;29;20533;-78
2021/07/02 04:41:13;;;;;;;0.90;0.90;;;14.00;99.90;;;;;;4962336;28;20178;-79
2021/07/02 04:43:40;;;;;;;0.70;0.60;;;14.10;99.90;;;;;;4958259;29;20247;-79
2021/07/02 04:46:05;;;;;;;1.43;1.33;;;14.00;99.90;;;;;;4959180;28;20177;-78
2021/07/02 04:48:31;;;;;;;4.60;1.10;;;14.10;99.90;;;;;;4957936;28;20434;-80
2021/07/02 04:50:56;;;;;;;0.70;0.50;;;14.00;99.90;;;;;;4953871;28;20261;-79
2021/07/02 04:53:22;;;;;;;3.07;2.87;;;14.00;99.90;;;;;;4956245;28;20178;-79
2021/07/02 04:55:48;;;;;;;3.60;2.00;;;14.00;99.90;;;;;;4953536;28;20178;-78
2021/07/02 04:58:16;;;;;;;3.07;1.00;;;14.00;99.90;;;;;;4950062;28;20175;-78
2021/07/02 05:00:41;;;;;;;0.80;0.80;;;14.10;99.90;;;;;;4955957;28;20646;-79
2021/07/02 05:03:07;;;;;;;0.80;0.63;;;14.10;99.90;;;;;;4957513;28;20476;-80
2021/07/02 05:05:33;;;;;;;1.00;0.70;;;14.10;99.90;;;;;;4955340;29;20209;-78
2021/07/02 05:07:59;;;;;;;1.47;1.00;;;14.10;99.90;;;;;;4959851;28;20175;-79
2021/07/02 05:10:25;;;;;;;2.30;1.07;;;14.20;99.90;;;;;;4957558;28;20285;-81
2021/07/02 05:12:51;;;;;;;0.70;0.50;;;14.30;99.90;;;;;;4956511;28;20469;-79
2021/07/02 05:15:17;;;;;;;1.53;1.43;;;14.20;99.90;;;;;;4955435;29;20804;-78
2021/07/02 05:17:43;;;;;;;2.90;1.40;;;14.30;99.90;;;;;;4956095;29;20178;-78
2021/07/02 05:20:09;;;;;;;1.10;1.00;;;14.40;99.90;;;;;;4956385;28;20201;-78
2021/07/02 05:22:35;;;;;;;2.73;2.63;;;14.50;99.90;;;;;;4949756;29;20441;-79
2021/07/02 05:25:01;;;;;;;1.80;1.53;;;14.50;99.90;;;;;;4954410;29;20826;-79
2021/07/02 05:27:27;;;;;;;1.17;1.10;;;14.70;99.90;;;;;;4951647;28;20436;-79
2021/07/02 05:29:53;;;;;;;2.23;1.03;;;14.80;99.90;;;;;;4953339;29;20457;-79
2021/07/02 05:32:18;;;;;;;1.63;0.90;;;14.90;99.90;;;;;;4947708;28;20177;-78
2021/07/02 05:34:44;;;;;;;1.83;1.73;;;15.00;99.90;;;;;;4944811;28;20179;-79
2021/07/02 05:37:09;;;;;;;0.90;0.70;;;15.20;99.90;;;;;;4939289;29;20262;-79
2021/07/02 05:39:35;;;;;;;2.40;1.93;;;15.30;99.90;;;;;;4948836;29;20206;-79
2021/07/02 05:42:00;;;;;;;2.40;1.30;;;15.40;99.90;;;;;;4951536;28;20580;-79
2021/07/02 05:44:26;;;;;;;1.20;1.10;;;15.60;99.90;;;;;;4948861;28;20640;-78
2021/07/02 05:46:52;;;;;;;0.90;0.70;;;15.80;99.90;;;;;;4949208;29;20189;-78
2021/07/02 05:49:18;;;;;;;1.23;0.73;;;16.00;99.90;;;;;;4951348;28;20207;-80
2021/07/02 05:51:43;;;;;;;0.80;0.70;;;16.10;99.90;;;;;;4950747;28;20190;-80
2021/07/02 05:54:09;;;;;;;2.90;1.33;;;16.20;99.90;;;;;;4952829;28;20437;-80
2021/07/02 05:56:35;;;;;;;1.23;1.13;;;16.40;99.90;;;;;;4949184;28;20186;-80
2021/07/02 05:59:01;;;;;;;0.90;0.73;;;16.60;99.90;;;;;;4944100;29;20213;-79
2021/07/02 06:01:29;;;;;;;1.00;0.90;;;16.70;99.90;;;;;;4954181;28;20962;-80
2021/07/02 06:03:55;;;;;;;1.27;1.17;;;16.80;99.90;;;;;;4952690;28;20457;-80
2021/07/02 06:06:21;;;;;;;1.23;1.10;;;17.10;99.90;;;;;;4941813;28;20928;-80
2021/07/02 06:08:47;;;;;;;1.20;1.10;;;17.30;99.90;;;;;;4939055;28;20783;-80
2021/07/02 06:11:13;;;;;;;1.03;0.93;;;17.40;99.90;;;;;;4950615;29;20464;-80
2021/07/02 06:13:38;;;;;;;4.00;0.83;;;17.50;99.90;;;;;;4953142;28;20428;-78
2021/07/02 06:16:05;;;;;;;1.90;1.80;;;17.70;99.90;;;;;;4953350;28;20457;-80
2021/07/02 06:18:31;;;;;;;0.80;0.70;;;17.90;99.90;;;;;;4953218;28;20182;-79
2021/07/02 06:20:57;;;;;;;3.10;1.03;;;18.10;99.90;;;;;;4953985;28;20772;-80
2021/07/02 06:23:24;;;;;;;0.80;0.60;;;18.40;99.90;;;;;;4950685;28;20171;-80
2021/07/02 06:25:50;;;;;;;2.50;2.00;;;18.70;99.90;;;;;;4950983;28;20659;-80
2021/07/02 06:28:16;;;;;;;1.77;1.67;;;18.90;99.90;;;;;;4956162;29;20425;-80
2021/07/02 06:30:43;;;;;;;1.37;1.27;;;19.00;99.90;;;;;;4956334;29;20456;-79
2021/07/02 06:33:10;;;;;;;2.20;2.10;;;19.20;99.90;;;;;;4956177;29;20437;-79
2021/07/02 06:35:36;;;;;;;1.33;1.23;;;19.50;99.90;;;;;;4955590;29;20509;-82
2021/07/02 06:38:02;;;;;;;0.80;0.60;;;19.80;99.90;;;;;;4957119;28;20556;-82
2021/07/02 06:40:28;;;;;;;0.90;0.80;;;19.90;99.90;;;;;;4954222;28;20469;-79
2021/07/02 06:42:53;;;;;;;0.90;0.60;;;20.10;99.90;;;;;;4949633;29;20540;-81
2021/07/02 06:45:19;;;;;;;0.80;0.80;;;20.10;99.90;;;;;;4943317;28;20408;-79
2021/07/02 06:47:57;;;;;;;0.70;0.60;;;20.20;99.90;;;;;;4949015;29;20182;-81
2021/07/02 06:50:25;;;;;;;4.70;1.80;;;20.20;99.90;;;;;;4939305;29;20700;-80
2021/07/02 06:52:51;;;;;;;1.20;0.80;;;20.20;99.90;;;;;;4954211;28;20477;-80
2021/07/02 06:55:16;;;;;;;1.47;1.37;;;20.30;99.90;;;;;;4950131;28;20827;-80
2021/07/02 06:57:42;;;;;;;1.30;1.20;;;20.40;99.90;;;;;;4958755;28;20628;-80
2021/07/02 07:00:08;;;;;;;1.37;1.03;;;20.20;99.90;;;;;;4955354;28;20209;-80
2021/07/02 07:02:34;;;;;;;1.30;0.80;;;20.20;99.90;;;;;;4955246;28;20261;-81
2021/07/02 07:04:59;;;;;;;2.63;1.27;;;20.30;99.90;;;;;;4954596;28;20432;-80
2021/07/02 07:07:25;;;;;;;12.67;1.27;;;20.40;99.90;;;;;;4955901;28;21010;-79
2021/07/02 07:09:50;;;;;;;1.00;0.90;;;20.30;99.90;;;;;;4956140;29;20285;-81
2021/07/02 07:12:16;;;;;;;1.20;1.00;;;20.40;99.90;;;;;;4946319;28;20175;-81
2021/07/02 07:14:41;;;;;;;1.20;1.10;;;20.60;99.90;;;;;;4949488;29;20189;-81
2021/07/02 07:17:10;;;;;;;1.57;1.23;;;20.60;99.90;;;;;;4955811;28;20181;-81
2021/07/02 07:19:37;;;;;;;1.70;1.60;;;20.60;99.90;;;;;;4958793;28;20213;-80
2021/07/02 07:22:03;;;;;;;0.80;0.70;;;20.60;99.90;;;;;;4953409;29;20458;-81
2021/07/02 07:24:28;;;;;;;1.00;0.90;;;20.70;99.90;;;;;;4953299;29;20465;-81
2021/07/02 07:26:56;;;;;;;2.03;0.90;;;20.90;99.90;;;;;;4948154;28;20429;-81
2021/07/02 07:29:22;;;;;;;0.90;0.77;;;21.00;99.90;;;;;;4943750;29;20201;-81
2021/07/02 07:31:48;;;;;;;7.80;1.30;;;21.20;99.90;;;;;;4950442;28;21129;-81
2021/07/02 07:34:22;;;;;;;1.13;0.70;;;21.20;99.90;;;;;;4948437;28;20437;-80
2021/07/02 07:36:52;;;;;;;0.80;0.60;;;21.30;99.90;;;;;;4957506;28;20178;-82
2021/07/02 07:39:18;;;;;;;0.80;0.70;;;21.30;99.90;;;;;;4974024;28;20478;-80
2021/07/02 07:41:43;;;;;;;1.50;0.80;;;21.30;99.90;;;;;;4957456;28;20486;-81
2021/07/02 07:44:09;;;;;;;1.13;1.03;;;21.30;99.90;;;;;;4958814;28;20174;-80
2021/07/02 07:46:34;;;;;;;0.70;0.60;;;21.20;99.90;;;;;;4958178;28;20182;-80
2021/07/02 07:49:00;;;;;;;1.10;0.87;;;21.10;99.90;;;;;;4959718;28;20293;-80
2021/07/02 07:53:54;;;;;;;1.00;0.70;;;21.10;99.90;;;;;;4962114;28;20274;-82
2021/07/02 07:56:19;;;;;;;1.60;0.90;;;21.40;99.90;;;;;;4958410;28;20465;-81
2021/07/02 07:58:45;;;;;;;1.20;0.97;;;21.50;99.90;;;;;;4954386;28;20629;-81
2021/07/02 08:01:11;;;;;;;1.63;0.60;;;21.60;99.90;;;;;;4955898;29;20190;-80
2021/07/02 08:03:37;;;;;;;1.10;0.90;;;21.80;99.90;;;;;;4943926;28;20293;-81
2021/07/02 08:06:02;;;;;;;0.97;0.70;;;21.90;99.90;;;;;;4956991;28;20179;-81
2021/07/02 08:08:28;;;;;;;0.70;0.60;;;21.90;99.90;;;;;;4938719;28;20430;-81
2021/07/02 08:10:54;;;;;;;1.00;0.90;;;21.90;99.90;;;;;;4942265;29;20550;-81
2021/07/02 08:13:19;;;;;;;0.83;0.80;;;21.90;99.90;;;;;;4941903;28;20831;-82
2021/07/02 08:15:45;;;;;;;1.20;0.80;;;22.00;99.90;;;;;;4943322;29;20662;-82
2021/07/02 08:18:11;;;;;;;1.00;0.90;;;21.90;99.90;;;;;;4948689;29;20625;-83
2021/07/02 08:20:37;;;;;;;6.00;0.77;;;21.90;99.90;;;;;;4962570;29;20465;-82
2021/07/02 08:23:09;;;;;;;1.87;0.80;;;21.80;99.90;;;;;;4966850;29;20433;-83
2021/07/02 08:25:36;;;;;;;1.10;0.97;;;21.80;99.90;;;;;;4956246;28;20198;-83
2021/07/02 08:30:46;;;;;;;0.83;0.70;;;21.70;99.90;;;;;;4957714;29;20457;-82
2021/07/02 08:33:16;;;;;;;0.80;0.60;;;21.70;99.90;;;;;;4954331;29;20422;-82
2021/07/02 08:35:42;;;;;;;1.00;0.83;;;21.70;99.90;;;;;;4948592;28;20163;-82
2021/07/02 08:38:07;;;;;;;1.10;0.70;;;21.70;99.90;;;;;;4952091;29;20444;-81
2021/07/02 08:40:33;;;;;;;1.10;0.70;;;21.80;99.90;;;;;;4956427;29;20217;-81
2021/07/02 08:42:58;;;;;;;0.90;0.60;;;21.80;99.90;;;;;;4946416;29;20170;-82
2021/07/02 08:45:24;;;;;;;0.90;0.70;;;21.80;99.90;;;;;;4940881;29;20208;-83
2021/07/02 08:47:52;;;;;;;0.93;0.83;;;22.00;99.90;;;;;;4936701;29;20178;-82
2021/07/02 08:50:19;;;;;;;1.13;0.97;;;21.90;99.90;;;;;;4936537;29;20443;-82
2021/07/02 08:52:44;;;;;;;0.90;0.80;;;22.00;99.90;;;;;;4947541;29;20436;-83
2021/07/02 08:55:11;;;;;;;1.17;0.80;;;22.00;99.90;;;;;;4955195;29;20934;-83
2021/07/02 08:57:37;;;;;;;0.80;0.70;;;22.10;99.90;;;;;;4947837;29;20193;-83
2021/07/02 09:00:03;;;;;;;1.83;1.37;;;22.20;99.90;;;;;;4950664;29;20553;-83
2021/07/02 09:02:30;;;;;;;3.17;2.27;;;22.20;99.90;;;;;;4946336;28;20186;-83
2021/07/02 09:04:57;;;;;;;0.80;0.70;;;22.50;99.90;;;;;;4954929;28;20430;-83
2021/07/02 09:07:23;;;;;;;5.43;0.80;;;22.60;99.90;;;;;;4953480;28;20426;-83
2021/07/02 09:09:50;;;;;;;3.03;1.03;;;22.70;99.90;;;;;;4954691;28;20478;-82
2021/07/02 09:12:18;;;;;;;0.93;0.83;;;22.90;99.90;;;;;;4959387;29;20193;-81
2021/07/02 09:15:10;;;;;;;1.10;1.03;;;23.10;99.90;;;;;;4955913;28;20513;-82
2021/07/02 09:17:45;;;;;;;1.67;1.40;;;23.20;99.90;;;;;;4961835;28;20426;-82
2021/07/02 09:20:14;;;;;;;0.80;0.60;;;23.20;99.90;;;;;;4956155;28;20472;-83
2021/07/02 09:22:49;;;;;;;2.13;0.90;;;23.00;99.90;;;;;;4954625;28;20937;-83
2021/07/02 09:25:26;;;;;;;1.77;0.80;;;23.10;99.90;;;;;;4958135;28;20409;-82
2021/07/02 09:27:54;;;;;;;1.20;1.10;;;22.90;99.90;;;;;;4956742;29;20429;-83
2021/07/02 09:30:26;;;;;;;2.07;0.70;;;23.20;99.90;;;;;;4941987;28;20453;-84
2021/07/02 09:32:54;;;;;;;1.67;0.80;;;23.70;99.90;;;;;;4956407;28;20430;-81
2021/07/02 09:35:23;;;;;;;1.10;0.80;;;24.00;99.90;;;;;;4947450;28;21034;-83
2021/07/02 09:37:50;;;;;;;2.23;2.03;;;24.40;99.90;;;;;;4957064;29;20422;-84
2021/07/02 09:40:21;;;;;;;1.47;0.90;;;24.60;99.90;;;;;;4951747;28;20473;-79
2021/07/02 09:43:07;;;;;;;0.97;0.80;;;25.20;99.90;;;;;;4955431;28;20791;-79
2021/07/02 09:45:44;;;;;;;3.10;1.77;;;25.50;99.90;;;;;;4968872;28;20810;-78
2021/07/02 09:48:11;;;;;;;3.00;2.63;;;25.80;99.90;;;;;;4953327;29;21045;-80
2021/07/02 09:50:44;;;;;;;1.10;1.00;;;26.00;99.90;;;;;;4958689;28;20473;-79
2021/07/02 09:53:10;;;;;;;0.83;0.70;;;26.10;98.70;;;;;;4959471;28;20429;-80
2021/07/02 09:55:46;;;;;;;1.37;1.27;;;26.30;99.90;;;;;;4958555;28;20454;-80
2021/07/02 09:58:15;;;;;;;1.30;1.13;;;26.60;99.90;;;;;;4941932;29;20425;-80
2021/07/02 10:00:55;;;;;;;1.20;0.90;;;26.40;99.90;;;;;;4943783;29;21012;-80
2021/07/02 10:03:32;;;;;;;2.53;2.33;;;26.40;99.90;;;;;;4936118;29;20423;-80
2021/07/02 10:06:01;;;;;;;0.90;0.80;;;26.50;93.70;;;;;;4935744;29;20434;-80
2021/07/02 10:08:29;;;;;;;1.73;1.50;;;26.40;89.40;;;;;;4938418;29;20458;-80
2021/07/02 10:10:56;;;;;;;1.50;1.40;;;26.60;94.80;;;;;;4949956;28;21139;-80
2021/07/02 10:13:25;;;;;;;1.87;1.53;;;26.80;94.30;;;;;;4952095;28;20466;-80
2021/07/02 10:15:52;;;;;;;2.30;2.20;;;27.10;91.20;;;;;;4949763;28;20485;-80
2021/07/02 10:18:19;;;;;;;2.50;1.13;;;27.10;90.30;;;;;;4954369;28;20974;-81
2021/07/02 10:20:46;;;;;;;1.37;1.27;;;27.00;86.30;;;;;;4955030;28;21014;-80
2021/07/02 10:23:16;;;;;;;2.17;1.77;;;27.10;84.00;;;;;;4948636;28;20434;-80
2021/07/02 10:25:42;;;;;;;2.50;1.30;;;27.20;90.90;;;;;;4941143;28;20417;-80
2021/07/02 10:28:12;;;;;;;3.20;1.80;;;27.30;91.10;;;;;;4956169;28;20429;-79
2021/07/02 10:30:40;;;;;;;2.70;2.33;;;27.30;87.80;;;;;;4946034;29;20444;-79
2021/07/02 10:33:06;;;;;;;2.10;1.33;;;27.30;89.30;;;;;;4943161;28;20422;-80
2021/07/02 10:35:33;;;;;;;1.03;0.90;;;27.10;85.90;;;;;;4953557;28;20434;-80
2021/07/02 10:38:00;;;;;;;1.53;0.80;;;27.00;87.40;;;;;;4947474;28;20437;-80
2021/07/02 10:40:32;;;;;;;1.80;1.10;;;26.80;82.90;;;;;;4953882;28;20552;-80
2021/07/02 10:43:05;;;;;;;1.00;0.80;;;26.80;85.90;;;;;;4950362;28;20423;-79
2021/07/02 10:45:30;;;;;;;2.20;1.43;;;26.50;84.80;;;;;;4955291;28;20418;-80
2021/07/02 10:47:57;;;;;;;1.70;1.03;;;26.30;93.30;;;;;;4942613;28;20513;-79
2021/07/02 10:50:38;;;;;;;1.13;1.00;;;26.40;92.90;;;;;;4936407;29;20253;-80
2021/07/02 10:53:27;;;;;;;3.60;3.30;;;26.10;90.00;;;;;;4948399;29;20602;-79
2021/07/02 10:55:53;;;;;;;1.30;1.20;;;26.00;89.00;;;;;;4955381;28;20426;-79
2021/07/02 10:58:21;;;;;;;2.40;2.20;;;25.90;91.40;;;;;;4957175;28;20425;-79
2021/07/02 11:01:10;;;;;;;1.00;0.90;;;25.80;94.10;;;;;;4942351;28;20490;-80
2021/07/02 11:03:37;;;;;;;0.90;0.80;;;25.70;99.30;;;;;;4942216;29;20477;-80
2021/07/02 11:06:33;;;;;;;0.90;0.70;;;25.30;95.90;;;;;;4950015;29;20998;-79
2021/07/02 11:08:59;;;;;;;1.73;1.47;;;25.30;99.90;;;;;;4946843;29;20440;-79
2021/07/02 11:11:24;;;;;;;5.07;2.10;;;25.00;99.90;;;;;;4953084;29;20426;-79
2021/07/02 11:14:09;;;;;;;0.90;0.80;;;24.80;99.90;;;;;;4954351;29;20185;-79
2021/07/02 11:16:54;;;;;;;1.00;0.80;;;25.20;99.90;;;;;;4954217;29;20178;-80
2021/07/02 11:19:27;;;;;;;1.73;1.10;;;25.70;99.90;;;;;;4943890;29;20549;-80
2021/07/02 11:22:26;;;;;;;1.60;1.37;;;26.00;99.90;;;;;;4945703;29;20470;-80
2021/07/02 11:27:56;;;;;;;1.50;1.10;;;27.20;99.70;;;;;;4954030;28;20430;-80
2021/07/02 11:30:33;;;;;;;10.27;1.80;;;27.60;89.10;;;;;;4952486;29;20445;-80
2021/07/02 11:33:01;;;;;;;2.10;0.90;;;27.80;88.90;;;;;;4945736;28;20422;-80
2021/07/02 11:35:29;;;;;;;4.03;1.70;;;27.80;86.70;;;;;;4935966;29;20557;-80
2021/07/02 11:38:06;;;;;;;1.43;1.30;;;27.90;85.80;;;;;;4934864;29;20426;-79
2021/07/02 11:40:37;;;;;;;0.90;0.70;;;28.00;89.20;;;;;;4947342;29;20470;-79
2021/07/02 11:43:05;;;;;;;2.13;1.70;;;27.70;85.80;;;;;;4953695;28;20509;-79
2021/07/02 11:45:47;;;;;;;1.50;0.87;;;27.50;90.10;;;;;;4948511;29;20426;-80
2021/07/02 11:48:19;;;;;;;0.90;0.77;;;27.70;94.60;;;;;;4935885;29;20422;-80
2021/07/02 11:50:46;;;;;;;2.47;1.00;;;27.80;92.00;;;;;;4948230;29;20454;-80
2021/07/02 11:53:30;;;;;;;1.10;0.87;;;28.00;83.80;;;;;;4947309;28;20430;-80
2021/07/02 11:56:02;;;;;;;0.90;0.80;;;28.40;81.30;;;;;;4935370;29;20419;-79
2021/07/02 11:58:31;;;;;;;0.90;0.80;;;28.30;82.90;;;;;;4947906;28;20422;-79
2021/07/02 12:00:58;;;;;;;1.57;1.13;;;28.70;90.80;;;;;;4952835;29;20552;-80
2021/07/02 12:03:25;;;;;;;3.30;1.77;;;29.00;90.00;;;;;;4957633;28;20422;-80
2021/07/02 12:05:59;;;;;;;0.90;0.80;;;29.40;91.30;;;;;;4955999;29;20422;-80
2021/07/02 12:08:27;;;;;;;1.40;1.30;;;29.60;82.40;;;;;;4956198;29;20906;-80
2021/07/02 12:11:00;;;;;;;1.37;1.27;;;29.70;78.70;;;;;;4948598;28;20426;-80
2021/07/02 12:13:27;;;;;;;2.33;2.20;;;29.80;77.70;;;;;;4952121;29;20427;-80
2021/07/02 12:16:00;;;;;;;1.10;1.00;;;30.00;72.80;;;;;;4949498;28;20446;-80
2021/07/02 12:18:26;;;;;;;1.00;0.90;;;30.40;82.00;;;;;;4937660;29;21240;-80
2021/07/02 12:21:03;;;;;;;1.10;0.97;;;30.40;74.60;;;;;;4938002;29;20474;-80
2021/07/02 12:23:34;;;;;;;1.40;1.30;;;30.50;72.90;;;;;;4946398;29;20577;-80
2021/07/02 12:26:22;;;;;;;2.63;1.90;;;30.20;66.90;;;;;;4943576;29;20434;-80
2021/07/02 12:29:00;;;;;;;0.90;0.80;;;30.00;69.90;;;;;;4939904;29;20450;-81
2021/07/02 12:31:33;;;;;;;1.47;1.30;;;29.70;68.30;;;;;;4968762;28;20422;-80
2021/07/02 12:33:59;;;;;;;0.93;0.80;;;29.60;75.90;;;;;;4951308;29;20426;-80
2021/07/02 12:36:26;;;;;;;1.67;1.57;;;29.60;72.20;;;;;;4952759;28;20430;-80
2021/07/02 12:39:04;;;;;;;3.30;2.13;;;29.80;73.30;;;;;;4940962;29;20567;-80
2021/07/02 12:41:36;;;;;;;1.57;1.47;;;29.80;71.00;;;;;;4957312;29;20472;-80
2021/07/02 12:44:02;;;;;;;2.00;1.90;;;30.10;79.70;;;;;;4953184;28;20415;-80
2021/07/02 12:46:27;;;;;;;1.37;1.00;;;30.50;73.90;;;;;;4951447;29;20423;-80
2021/07/02 12:49:16;;;;;;;2.50;1.47;;;30.50;65.70;;;;;;4944343;29;20533;-80
2021/07/02 12:51:59;;;;;;;2.27;1.10;;;30.20;70.40;;;;;;4953990;28;20592;-79
2021/07/02 12:57:24;;;;;;;1.40;1.30;;;30.00;70.00;;;;;;4952745;29;20413;-79
2021/07/02 12:59:52;;;;;;;1.67;1.50;;;29.60;76.00;;;;;;4954538;28;21004;-80